sensor_id;sensor_type;location;lat;lon;timestamp;P1;durP1;ratioP1;P2;durP2;ratioP2
2850;SDS011;1433;49.976;8.342;2022-12-10T00:01:10;15.77;;;12.13;;
2850;SDS011;1433;49.976;8.342;2022-12-10T00:03:36;15.90;;;12.40;;
2850;SDS011;1433;49.976;8.342;2022-12-10T00:06:04;17.10;;;13.03;;
2850;SDS011;1433;49.976;8.342;2022-12-10T00:08:34;15.60;;;12.13;;
2850;SDS011;1433;49.976;8.342;2022-12-10T00:11:04;16.43;;;14.60;;
2850;SDS011;1433;49.976;8.342;2022-12-10T00:13:33;16.53;;;12.90;;
2850;SDS011;1433;49.976;8.342;2022-12-10T00:16:01;20.00;;;13.67;;
2850;SDS011;1433;49.976;8.342;2022-12-10T00:18:30;17.53;;;14.33;;
2850;SDS011;1433;49.976;8.342;2022-12-10T00:20:57;14.93;;;13.10;;
2850;SDS011;1433;49.976;8.342;2022-12-10T00:23:24;17.73;;;13.70;;
2850;SDS011;1433;49.976;8.342;2022-12-10T00:25:50;17.70;;;14.30;;
2850;SDS011;1433;49.976;8.342;2022-12-10T00:28:16;18.23;;;12.70;;
2850;SDS011;1433;49.976;8.342;2022-12-10T00:30:42;19.70;;;13.40;;
2850;SDS011;1433;49.976;8.342;2022-12-10T00:33:10;18.07;;;14.90;;
2850;SDS011;1433;49.976;8.342;2022-12-10T00:35:36;15.60;;;13.70;;
2850;SDS011;1433;49.976;8.342;2022-12-10T00:38:03;14.90;;;13.30;;
2850;SDS011;1433;49.976;8.342;2022-12-10T00:40:29;14.07;;;12.50;;
2850;SDS011;1433;49.976;8.342;2022-12-10T00:42:56;16.20;;;12.10;;
2850;SDS011;1433;49.976;8.342;2022-12-10T00:45:22;22.87;;;15.63;;
2850;SDS011;1433;49.976;8.342;2022-12-10T00:47:49;14.47;;;12.73;;
2850;SDS011;1433;49.976;8.342;2022-12-10T00:50:16;15.47;;;13.20;;
2850;SDS011;1433;49.976;8.342;2022-12-10T00:52:42;17.20;;;13.10;;
2850;SDS011;1433;49.976;8.342;2022-12-10T00:55:08;16.43;;;14.63;;
2850;SDS011;1433;49.976;8.342;2022-12-10T00:57:35;16.83;;;14.83;;
2850;SDS011;1433;49.976;8.342;2022-12-10T01:00:03;16.30;;;14.07;;
2850;SDS011;1433;49.976;8.342;2022-12-10T01:02:31;15.40;;;12.77;;
2850;SDS011;1433;49.976;8.342;2022-12-10T01:04:57;17.33;;;14.10;;
2850;SDS011;1433;49.976;8.342;2022-12-10T01:07:24;18.10;;;14.40;;
2850;SDS011;1433;49.976;8.342;2022-12-10T01:09:50;14.73;;;12.87;;
2850;SDS011;1433;49.976;8.342;2022-12-10T01:12:17;17.67;;;14.57;;
2850;SDS011;1433;49.976;8.342;2022-12-10T01:14:43;16.03;;;13.77;;
2850;SDS011;1433;49.976;8.342;2022-12-10T01:17:10;17.60;;;14.53;;
2850;SDS011;1433;49.976;8.342;2022-12-10T01:19:37;18.50;;;15.00;;
2850;SDS011;1433;49.976;8.342;2022-12-10T01:22:03;16.63;;;12.90;;
2850;SDS011;1433;49.976;8.342;2022-12-10T01:24:32;17.80;;;15.80;;
2850;SDS011;1433;49.976;8.342;2022-12-10T01:26:58;19.60;;;14.67;;
2850;SDS011;1433;49.976;8.342;2022-12-10T01:29:26;19.13;;;14.77;;
2850;SDS011;1433;49.976;8.342;2022-12-10T01:31:55;21.90;;;16.30;;
2850;SDS011;1433;49.976;8.342;2022-12-10T01:34:23;19.83;;;17.13;;
2850;SDS011;1433;49.976;8.342;2022-12-10T01:36:51;18.43;;;15.20;;
2850;SDS011;1433;49.976;8.342;2022-12-10T01:39:20;16.93;;;14.40;;
2850;SDS011;1433;49.976;8.342;2022-12-10T01:41:50;18.07;;;14.93;;
2850;SDS011;1433;49.976;8.342;2022-12-10T01:46:56;17.00;;;13.23;;
2850;SDS011;1433;49.976;8.342;2022-12-10T01:49:31;15.47;;;13.77;;
2850;SDS011;1433;49.976;8.342;2022-12-10T01:52:00;17.80;;;14.07;;
2850;SDS011;1433;49.976;8.342;2022-12-10T01:54:29;17.20;;;14.47;;
2850;SDS011;1433;49.976;8.342;2022-12-10T01:57:01;17.87;;;14.23;;
2850;SDS011;1433;49.976;8.342;2022-12-10T01:59:31;21.03;;;14.00;;
2850;SDS011;1433;49.976;8.342;2022-12-10T02:05:23;17.47;;;13.97;;
2850;SDS011;1433;49.976;8.342;2022-12-10T02:08:05;21.97;;;15.03;;
2850;SDS011;1433;49.976;8.342;2022-12-10T02:16:14;14.47;;;11.90;;
2850;SDS011;1433;49.976;8.342;2022-12-10T02:18:52;17.73;;;14.33;;
2850;SDS011;1433;49.976;8.342;2022-12-10T02:21:35;15.17;;;13.47;;
2850;SDS011;1433;49.976;8.342;2022-12-10T02:24:07;16.10;;;12.93;;
2850;SDS011;1433;49.976;8.342;2022-12-10T02:26:43;16.43;;;12.57;;
2850;SDS011;1433;49.976;8.342;2022-12-10T02:29:20;16.27;;;12.73;;
2850;SDS011;1433;49.976;8.342;2022-12-10T02:31:51;14.43;;;12.80;;
2850;SDS011;1433;49.976;8.342;2022-12-10T02:34:25;17.53;;;13.73;;
2850;SDS011;1433;49.976;8.342;2022-12-10T02:36:57;13.43;;;11.87;;
2850;SDS011;1433;49.976;8.342;2022-12-10T02:39:30;14.93;;;11.60;;
2850;SDS011;1433;49.976;8.342;2022-12-10T02:42:01;15.37;;;12.03;;
2850;SDS011;1433;49.976;8.342;2022-12-10T02:44:30;14.13;;;12.30;;
2850;SDS011;1433;49.976;8.342;2022-12-10T02:46:59;15.20;;;12.40;;
2850;SDS011;1433;49.976;8.342;2022-12-10T02:49:30;12.47;;;10.70;;
2850;SDS011;1433;49.976;8.342;2022-12-10T02:51:59;14.60;;;12.67;;
2850;SDS011;1433;49.976;8.342;2022-12-10T02:54:39;14.90;;;11.83;;
2850;SDS011;1433;49.976;8.342;2022-12-10T03:05:35;15.37;;;11.60;;
2850;SDS011;1433;49.976;8.342;2022-12-10T03:11:21;19.00;;;13.80;;
2850;SDS011;1433;49.976;8.342;2022-12-10T03:16:23;15.30;;;11.37;;
2850;SDS011;1433;49.976;8.342;2022-12-10T03:18:55;15.93;;;12.70;;
2850;SDS011;1433;49.976;8.342;2022-12-10T03:21:25;15.17;;;11.93;;
2850;SDS011;1433;49.976;8.342;2022-12-10T03:23:55;13.90;;;10.43;;
2850;SDS011;1433;49.976;8.342;2022-12-10T03:26:22;16.27;;;11.40;;
2850;SDS011;1433;49.976;8.342;2022-12-10T03:28:50;12.50;;;10.60;;
2850;SDS011;1433;49.976;8.342;2022-12-10T03:31:20;14.67;;;12.40;;
2850;SDS011;1433;49.976;8.342;2022-12-10T03:33:47;14.30;;;12.00;;
2850;SDS011;1433;49.976;8.342;2022-12-10T03:36:16;15.90;;;11.63;;
2850;SDS011;1433;49.976;8.342;2022-12-10T03:38:44;12.00;;;9.93;;
2850;SDS011;1433;49.976;8.342;2022-12-10T03:41:11;13.47;;;11.97;;
2850;SDS011;1433;49.976;8.342;2022-12-10T03:43:49;17.27;;;13.83;;
2850;SDS011;1433;49.976;8.342;2022-12-10T03:46:18;12.23;;;10.77;;
2850;SDS011;1433;49.976;8.342;2022-12-10T03:48:44;14.87;;;11.30;;
2850;SDS011;1433;49.976;8.342;2022-12-10T03:51:11;16.97;;;9.50;;
2850;SDS011;1433;49.976;8.342;2022-12-10T03:53:37;13.20;;;11.80;;
2850;SDS011;1433;49.976;8.342;2022-12-10T03:56:04;16.20;;;13.10;;
2850;SDS011;1433;49.976;8.342;2022-12-10T03:58:30;13.97;;;11.13;;
2850;SDS011;1433;49.976;8.342;2022-12-10T04:00:56;16.00;;;10.87;;
2850;SDS011;1433;49.976;8.342;2022-12-10T04:03:23;16.70;;;11.10;;
2850;SDS011;1433;49.976;8.342;2022-12-10T04:05:50;12.33;;;11.10;;
2850;SDS011;1433;49.976;8.342;2022-12-10T04:08:16;14.40;;;11.50;;
2850;SDS011;1433;49.976;8.342;2022-12-10T04:10:42;15.70;;;12.03;;
2850;SDS011;1433;49.976;8.342;2022-12-10T04:13:09;13.10;;;11.77;;
2850;SDS011;1433;49.976;8.342;2022-12-10T04:15:55;12.27;;;10.97;;
2850;SDS011;1433;49.976;8.342;2022-12-10T04:18:41;16.00;;;11.73;;
2850;SDS011;1433;49.976;8.342;2022-12-10T04:21:07;13.10;;;10.23;;
2850;SDS011;1433;49.976;8.342;2022-12-10T04:23:52;13.63;;;11.97;;
2850;SDS011;1433;49.976;8.342;2022-12-10T04:26:37;12.40;;;9.80;;
2850;SDS011;1433;49.976;8.342;2022-12-10T04:29:19;15.90;;;12.50;;
2850;SDS011;1433;49.976;8.342;2022-12-10T04:31:53;19.10;;;13.80;;
2850;SDS011;1433;49.976;8.342;2022-12-10T04:34:21;15.23;;;12.60;;
2850;SDS011;1433;49.976;8.342;2022-12-10T04:36:48;16.77;;;11.13;;
2850;SDS011;1433;49.976;8.342;2022-12-10T04:39:15;17.60;;;12.80;;
2850;SDS011;1433;49.976;8.342;2022-12-10T04:41:44;17.43;;;12.77;;
2850;SDS011;1433;49.976;8.342;2022-12-10T04:44:12;15.03;;;12.07;;
2850;SDS011;1433;49.976;8.342;2022-12-10T04:46:39;14.80;;;11.97;;
2850;SDS011;1433;49.976;8.342;2022-12-10T04:49:06;20.90;;;13.97;;
2850;SDS011;1433;49.976;8.342;2022-12-10T04:51:32;13.50;;;11.73;;
2850;SDS011;1433;49.976;8.342;2022-12-10T04:53:59;16.50;;;12.13;;
2850;SDS011;1433;49.976;8.342;2022-12-10T04:56:26;16.00;;;12.87;;
2850;SDS011;1433;49.976;8.342;2022-12-10T04:58:54;15.90;;;12.87;;
2850;SDS011;1433;49.976;8.342;2022-12-10T05:01:22;18.27;;;13.17;;
2850;SDS011;1433;49.976;8.342;2022-12-10T05:03:49;20.40;;;14.17;;
2850;SDS011;1433;49.976;8.342;2022-12-10T05:06:16;17.30;;;11.67;;
2850;SDS011;1433;49.976;8.342;2022-12-10T05:08:45;17.30;;;13.40;;
2850;SDS011;1433;49.976;8.342;2022-12-10T05:11:14;12.57;;;11.27;;
2850;SDS011;1433;49.976;8.342;2022-12-10T05:13:44;14.33;;;11.63;;
2850;SDS011;1433;49.976;8.342;2022-12-10T05:16:12;14.40;;;11.83;;
2850;SDS011;1433;49.976;8.342;2022-12-10T05:18:42;13.30;;;11.87;;
2850;SDS011;1433;49.976;8.342;2022-12-10T05:21:12;16.27;;;12.00;;
2850;SDS011;1433;49.976;8.342;2022-12-10T05:23:42;13.10;;;11.73;;
2850;SDS011;1433;49.976;8.342;2022-12-10T05:26:13;13.13;;;11.73;;
2850;SDS011;1433;49.976;8.342;2022-12-10T05:28:44;14.70;;;11.77;;
2850;SDS011;1433;49.976;8.342;2022-12-10T05:31:21;19.07;;;13.10;;
2850;SDS011;1433;49.976;8.342;2022-12-10T05:33:51;14.80;;;12.60;;
2850;SDS011;1433;49.976;8.342;2022-12-10T05:36:21;15.73;;;12.43;;
2850;SDS011;1433;49.976;8.342;2022-12-10T05:38:51;13.73;;;11.30;;
2850;SDS011;1433;49.976;8.342;2022-12-10T05:41:23;17.47;;;11.73;;
2850;SDS011;1433;49.976;8.342;2022-12-10T05:43:55;14.03;;;10.90;;
2850;SDS011;1433;49.976;8.342;2022-12-10T05:46:25;16.40;;;12.50;;
2850;SDS011;1433;49.976;8.342;2022-12-10T05:48:53;19.43;;;11.10;;
2850;SDS011;1433;49.976;8.342;2022-12-10T05:51:21;16.90;;;12.67;;
2850;SDS011;1433;49.976;8.342;2022-12-10T05:53:51;17.80;;;12.20;;
2850;SDS011;1433;49.976;8.342;2022-12-10T05:56:20;16.73;;;12.30;;
2850;SDS011;1433;49.976;8.342;2022-12-10T05:58:50;13.70;;;10.27;;
2850;SDS011;1433;49.976;8.342;2022-12-10T06:01:20;14.90;;;11.87;;
2850;SDS011;1433;49.976;8.342;2022-12-10T06:03:52;18.27;;;12.37;;
2850;SDS011;1433;49.976;8.342;2022-12-10T06:06:20;14.60;;;11.60;;
2850;SDS011;1433;49.976;8.342;2022-12-10T06:08:49;13.20;;;11.20;;
2850;SDS011;1433;49.976;8.342;2022-12-10T06:11:16;11.40;;;10.00;;
2850;SDS011;1433;49.976;8.342;2022-12-10T06:13:42;12.27;;;11.03;;
2850;SDS011;1433;49.976;8.342;2022-12-10T06:16:10;14.60;;;12.47;;
2850;SDS011;1433;49.976;8.342;2022-12-10T06:18:39;11.80;;;10.50;;
2850;SDS011;1433;49.976;8.342;2022-12-10T06:21:06;12.83;;;11.03;;
2850;SDS011;1433;49.976;8.342;2022-12-10T06:23:37;14.70;;;11.80;;
2850;SDS011;1433;49.976;8.342;2022-12-10T06:26:09;16.53;;;11.63;;
2850;SDS011;1433;49.976;8.342;2022-12-10T06:28:40;15.10;;;12.30;;
2850;SDS011;1433;49.976;8.342;2022-12-10T06:31:06;16.37;;;12.03;;
2850;SDS011;1433;49.976;8.342;2022-12-10T06:33:33;15.03;;;10.50;;
2850;SDS011;1433;49.976;8.342;2022-12-10T06:36:02;12.10;;;10.77;;
2850;SDS011;1433;49.976;8.342;2022-12-10T06:38:31;13.00;;;10.77;;
2850;SDS011;1433;49.976;8.342;2022-12-10T06:40:58;13.67;;;11.20;;
2850;SDS011;1433;49.976;8.342;2022-12-10T06:43:30;15.03;;;12.17;;
2850;SDS011;1433;49.976;8.342;2022-12-10T06:45:58;15.97;;;13.60;;
2850;SDS011;1433;49.976;8.342;2022-12-10T06:48:31;11.93;;;10.33;;
2850;SDS011;1433;49.976;8.342;2022-12-10T06:50:57;13.70;;;11.27;;
2850;SDS011;1433;49.976;8.342;2022-12-10T06:53:24;15.13;;;11.43;;
2850;SDS011;1433;49.976;8.342;2022-12-10T06:55:50;16.67;;;11.03;;
2850;SDS011;1433;49.976;8.342;2022-12-10T06:58:17;17.23;;;11.23;;
2850;SDS011;1433;49.976;8.342;2022-12-10T07:00:43;16.27;;;11.70;;
2850;SDS011;1433;49.976;8.342;2022-12-10T07:03:10;13.93;;;11.43;;
2850;SDS011;1433;49.976;8.342;2022-12-10T07:05:36;18.70;;;14.93;;
2850;SDS011;1433;49.976;8.342;2022-12-10T07:08:03;18.80;;;11.47;;
2850;SDS011;1433;49.976;8.342;2022-12-10T07:10:30;14.23;;;11.30;;
2850;SDS011;1433;49.976;8.342;2022-12-10T07:12:56;16.13;;;13.17;;
2850;SDS011;1433;49.976;8.342;2022-12-10T07:15:23;16.33;;;12.93;;
2850;SDS011;1433;49.976;8.342;2022-12-10T07:17:50;19.80;;;13.40;;
2850;SDS011;1433;49.976;8.342;2022-12-10T07:20:17;19.83;;;13.00;;
2850;SDS011;1433;49.976;8.342;2022-12-10T07:22:44;15.30;;;12.87;;
2850;SDS011;1433;49.976;8.342;2022-12-10T07:25:10;17.60;;;13.50;;
2850;SDS011;1433;49.976;8.342;2022-12-10T07:27:37;19.43;;;13.30;;
2850;SDS011;1433;49.976;8.342;2022-12-10T07:30:03;16.10;;;12.23;;
2850;SDS011;1433;49.976;8.342;2022-12-10T07:32:30;17.70;;;13.10;;
2850;SDS011;1433;49.976;8.342;2022-12-10T07:34:56;15.50;;;13.83;;
2850;SDS011;1433;49.976;8.342;2022-12-10T07:37:23;15.57;;;13.83;;
2850;SDS011;1433;49.976;8.342;2022-12-10T07:39:49;16.53;;;12.40;;
2850;SDS011;1433;49.976;8.342;2022-12-10T07:42:16;16.70;;;12.20;;
2850;SDS011;1433;49.976;8.342;2022-12-10T07:44:42;19.30;;;13.60;;
2850;SDS011;1433;49.976;8.342;2022-12-10T07:47:09;17.00;;;12.40;;
2850;SDS011;1433;49.976;8.342;2022-12-10T07:49:35;14.40;;;12.47;;
2850;SDS011;1433;49.976;8.342;2022-12-10T07:52:02;19.33;;;12.53;;
2850;SDS011;1433;49.976;8.342;2022-12-10T07:54:28;14.47;;;11.73;;
2850;SDS011;1433;49.976;8.342;2022-12-10T07:56:55;15.97;;;12.93;;
2850;SDS011;1433;49.976;8.342;2022-12-10T07:59:21;19.03;;;12.33;;
2850;SDS011;1433;49.976;8.342;2022-12-10T08:01:48;16.70;;;12.00;;
2850;SDS011;1433;49.976;8.342;2022-12-10T08:04:15;17.67;;;12.13;;
2850;SDS011;1433;49.976;8.342;2022-12-10T08:06:41;17.40;;;13.67;;
2850;SDS011;1433;49.976;8.342;2022-12-10T08:09:08;21.77;;;13.17;;
2850;SDS011;1433;49.976;8.342;2022-12-10T08:11:35;15.90;;;13.30;;
2850;SDS011;1433;49.976;8.342;2022-12-10T08:14:02;17.10;;;13.30;;
2850;SDS011;1433;49.976;8.342;2022-12-10T08:16:29;16.77;;;14.10;;
2850;SDS011;1433;49.976;8.342;2022-12-10T08:18:57;19.10;;;14.47;;
2850;SDS011;1433;49.976;8.342;2022-12-10T08:21:27;14.73;;;12.47;;
2850;SDS011;1433;49.976;8.342;2022-12-10T08:23:56;15.77;;;12.17;;
2850;SDS011;1433;49.976;8.342;2022-12-10T08:26:24;25.20;;;14.07;;
2850;SDS011;1433;49.976;8.342;2022-12-10T08:28:55;18.50;;;14.07;;
2850;SDS011;1433;49.976;8.342;2022-12-10T08:31:22;16.13;;;13.17;;
2850;SDS011;1433;49.976;8.342;2022-12-10T08:33:50;15.93;;;13.73;;
2850;SDS011;1433;49.976;8.342;2022-12-10T08:36:17;16.77;;;13.90;;
2850;SDS011;1433;49.976;8.342;2022-12-10T08:38:44;15.27;;;13.53;;
2850;SDS011;1433;49.976;8.342;2022-12-10T08:41:13;16.53;;;13.30;;
2850;SDS011;1433;49.976;8.342;2022-12-10T08:43:48;16.27;;;12.50;;
2850;SDS011;1433;49.976;8.342;2022-12-10T08:46:19;14.93;;;11.93;;
2850;SDS011;1433;49.976;8.342;2022-12-10T08:48:47;13.90;;;12.17;;
2850;SDS011;1433;49.976;8.342;2022-12-10T08:51:15;19.60;;;14.30;;
2850;SDS011;1433;49.976;8.342;2022-12-10T08:53:43;16.53;;;12.67;;
2850;SDS011;1433;49.976;8.342;2022-12-10T08:56:10;18.07;;;11.57;;
2850;SDS011;1433;49.976;8.342;2022-12-10T08:58:37;14.13;;;11.30;;
2850;SDS011;1433;49.976;8.342;2022-12-10T09:01:05;17.40;;;13.60;;
2850;SDS011;1433;49.976;8.342;2022-12-10T09:03:35;14.07;;;12.57;;
2850;SDS011;1433;49.976;8.342;2022-12-10T09:06:03;14.00;;;12.10;;
2850;SDS011;1433;49.976;8.342;2022-12-10T09:08:36;15.60;;;13.17;;
2850;SDS011;1433;49.976;8.342;2022-12-10T09:11:04;15.70;;;13.00;;
2850;SDS011;1433;49.976;8.342;2022-12-10T09:13:33;26.40;;;17.83;;
2850;SDS011;1433;49.976;8.342;2022-12-10T09:16:00;15.20;;;13.50;;
2850;SDS011;1433;49.976;8.342;2022-12-10T09:18:26;21.00;;;12.90;;
2850;SDS011;1433;49.976;8.342;2022-12-10T09:20:53;16.03;;;13.47;;
2850;SDS011;1433;49.976;8.342;2022-12-10T09:23:19;17.90;;;14.00;;
2850;SDS011;1433;49.976;8.342;2022-12-10T09:25:45;15.83;;;13.77;;
2850;SDS011;1433;49.976;8.342;2022-12-10T09:28:12;16.07;;;13.50;;
2850;SDS011;1433;49.976;8.342;2022-12-10T09:30:38;15.53;;;13.93;;
2850;SDS011;1433;49.976;8.342;2022-12-10T09:33:04;15.37;;;13.00;;
2850;SDS011;1433;49.976;8.342;2022-12-10T09:35:30;13.93;;;11.87;;
2850;SDS011;1433;49.976;8.342;2022-12-10T09:37:57;15.73;;;13.43;;
2850;SDS011;1433;49.976;8.342;2022-12-10T09:40:35;16.73;;;14.50;;
2850;SDS011;1433;49.976;8.342;2022-12-10T09:46:12;12.93;;;11.50;;
2850;SDS011;1433;49.976;8.342;2022-12-10T09:51:30;14.77;;;10.20;;
2850;SDS011;1433;49.976;8.342;2022-12-10T09:54:02;14.13;;;10.93;;
2850;SDS011;1433;49.976;8.342;2022-12-10T09:56:34;12.60;;;9.53;;
2850;SDS011;1433;49.976;8.342;2022-12-10T09:59:15;14.20;;;9.50;;
2850;SDS011;1433;49.976;8.342;2022-12-10T10:02:18;10.40;;;8.90;;
2850;SDS011;1433;49.976;8.342;2022-12-10T10:04:52;13.40;;;10.23;;
2850;SDS011;1433;49.976;8.342;2022-12-10T10:07:30;12.00;;;9.43;;
2850;SDS011;1433;49.976;8.342;2022-12-10T10:10:01;11.37;;;10.13;;
2850;SDS011;1433;49.976;8.342;2022-12-10T10:12:35;10.83;;;9.67;;
2850;SDS011;1433;49.976;8.342;2022-12-10T10:15:16;11.80;;;9.37;;
2850;SDS011;1433;49.976;8.342;2022-12-10T10:17:42;11.17;;;9.10;;
2850;SDS011;1433;49.976;8.342;2022-12-10T10:20:12;10.33;;;9.23;;
2850;SDS011;1433;49.976;8.342;2022-12-10T10:22:42;12.97;;;10.17;;
2850;SDS011;1433;49.976;8.342;2022-12-10T10:25:12;15.50;;;11.23;;
2850;SDS011;1433;49.976;8.342;2022-12-10T10:27:42;12.13;;;10.77;;
2850;SDS011;1433;49.976;8.342;2022-12-10T10:30:16;10.47;;;9.43;;
2850;SDS011;1433;49.976;8.342;2022-12-10T10:32:48;12.57;;;10.23;;
2850;SDS011;1433;49.976;8.342;2022-12-10T10:35:30;12.73;;;11.43;;
2850;SDS011;1433;49.976;8.342;2022-12-10T10:38:01;10.80;;;9.20;;
2850;SDS011;1433;49.976;8.342;2022-12-10T10:40:39;11.57;;;10.00;;
2850;SDS011;1433;49.976;8.342;2022-12-10T10:43:24;10.60;;;9.10;;
2850;SDS011;1433;49.976;8.342;2022-12-10T10:46:09;9.97;;;8.53;;
2850;SDS011;1433;49.976;8.342;2022-12-10T10:48:43;10.27;;;9.27;;
2850;SDS011;1433;49.976;8.342;2022-12-10T10:53:49;12.30;;;9.87;;
2850;SDS011;1433;49.976;8.342;2022-12-10T10:56:21;13.47;;;10.33;;
2850;SDS011;1433;49.976;8.342;2022-12-10T10:59:06;10.43;;;9.10;;
2850;SDS011;1433;49.976;8.342;2022-12-10T11:01:44;13.87;;;8.63;;
2850;SDS011;1433;49.976;8.342;2022-12-10T11:04:17;10.47;;;8.90;;
2850;SDS011;1433;49.976;8.342;2022-12-10T11:07:05;10.33;;;8.57;;
2850;SDS011;1433;49.976;8.342;2022-12-10T11:09:36;10.17;;;8.80;;
2850;SDS011;1433;49.976;8.342;2022-12-10T11:12:20;10.77;;;8.67;;
2850;SDS011;1433;49.976;8.342;2022-12-10T11:14:40;10.90;;;8.47;;
2850;SDS011;1433;49.976;8.342;2022-12-10T11:22:55;8.30;;;7.50;;
2850;SDS011;1433;49.976;8.342;2022-12-10T11:25:32;12.23;;;10.33;;
2850;SDS011;1433;49.976;8.342;2022-12-10T11:28:10;8.43;;;6.40;;
2850;SDS011;1433;49.976;8.342;2022-12-10T11:30:50;12.10;;;9.57;;
2850;SDS011;1433;49.976;8.342;2022-12-10T11:33:21;8.93;;;8.07;;
2850;SDS011;1433;49.976;8.342;2022-12-10T11:35:59;8.60;;;7.20;;
2850;SDS011;1433;49.976;8.342;2022-12-10T11:41:53;14.50;;;9.60;;
2850;SDS011;1433;49.976;8.342;2022-12-10T11:44:42;12.70;;;11.30;;
2850;SDS011;1433;49.976;8.342;2022-12-10T11:47:38;8.23;;;7.43;;
2850;SDS011;1433;49.976;8.342;2022-12-10T11:53:46;10.37;;;9.13;;
2850;SDS011;1433;49.976;8.342;2022-12-10T11:56:38;9.60;;;8.57;;
2850;SDS011;1433;49.976;8.342;2022-12-10T12:05:47;10.10;;;7.90;;
2850;SDS011;1433;49.976;8.342;2022-12-10T12:08:56;7.73;;;7.03;;
2850;SDS011;1433;49.976;8.342;2022-12-10T12:11:41;10.30;;;8.33;;
2850;SDS011;1433;49.976;8.342;2022-12-10T12:14:50;8.90;;;7.57;;
2850;SDS011;1433;49.976;8.342;2022-12-10T12:17:34;10.70;;;8.00;;
2850;SDS011;1433;49.976;8.342;2022-12-10T12:20:17;8.00;;;7.27;;
2850;SDS011;1433;49.976;8.342;2022-12-10T12:26:05;9.10;;;7.67;;
2850;SDS011;1433;49.976;8.342;2022-12-10T12:28:40;11.43;;;8.83;;
2850;SDS011;1433;49.976;8.342;2022-12-10T12:31:45;9.27;;;8.37;;
2850;SDS011;1433;49.976;8.342;2022-12-10T12:37:06;9.63;;;8.63;;
2850;SDS011;1433;49.976;8.342;2022-12-10T12:39:43;12.53;;;7.43;;
2850;SDS011;1433;49.976;8.342;2022-12-10T12:42:35;9.63;;;8.37;;
2850;SDS011;1433;49.976;8.342;2022-12-10T12:45:20;8.40;;;7.60;;
2850;SDS011;1433;49.976;8.342;2022-12-10T12:51:26;13.67;;;11.00;;
2850;SDS011;1433;49.976;8.342;2022-12-10T12:54:01;11.07;;;8.13;;
2850;SDS011;1433;49.976;8.342;2022-12-10T13:05:13;12.63;;;10.17;;
2850;SDS011;1433;49.976;8.342;2022-12-10T13:07:43;11.80;;;10.10;;
2850;SDS011;1433;49.976;8.342;2022-12-10T13:13:05;13.57;;;10.67;;
2850;SDS011;1433;49.976;8.342;2022-12-10T13:15:36;12.23;;;9.70;;
2850;SDS011;1433;49.976;8.342;2022-12-10T13:23:46;12.03;;;10.83;;
2850;SDS011;1433;49.976;8.342;2022-12-10T13:26:23;9.97;;;8.90;;
2850;SDS011;1433;49.976;8.342;2022-12-10T13:28:55;11.90;;;9.80;;
2850;SDS011;1433;49.976;8.342;2022-12-10T13:32:02;8.70;;;7.90;;
2850;SDS011;1433;49.976;8.342;2022-12-10T13:34:35;11.50;;;10.10;;
2850;SDS011;1433;49.976;8.342;2022-12-10T13:39:58;13.00;;;10.23;;
2850;SDS011;1433;49.976;8.342;2022-12-10T13:42:38;14.30;;;11.10;;
2850;SDS011;1433;49.976;8.342;2022-12-10T13:45:28;10.90;;;9.80;;
2850;SDS011;1433;49.976;8.342;2022-12-10T13:51:03;10.60;;;9.20;;
2850;SDS011;1433;49.976;8.342;2022-12-10T13:59:27;12.43;;;10.70;;
2850;SDS011;1433;49.976;8.342;2022-12-10T14:02:26;10.40;;;9.10;;
2850;SDS011;1433;49.976;8.342;2022-12-10T14:08:25;11.23;;;9.70;;
2850;SDS011;1433;49.976;8.342;2022-12-10T14:10:50;14.50;;;8.77;;
2850;SDS011;1433;49.976;8.342;2022-12-10T14:13:17;12.43;;;10.47;;
2850;SDS011;1433;49.976;8.342;2022-12-10T14:15:52;10.83;;;9.70;;
2850;SDS011;1433;49.976;8.342;2022-12-10T14:18:23;12.03;;;9.20;;
2850;SDS011;1433;49.976;8.342;2022-12-10T14:20:52;10.60;;;9.60;;
2850;SDS011;1433;49.976;8.342;2022-12-10T14:23:28;11.90;;;9.80;;
2850;SDS011;1433;49.976;8.342;2022-12-10T14:26:03;12.10;;;10.00;;
2850;SDS011;1433;49.976;8.342;2022-12-10T14:28:43;12.20;;;11.00;;
2850;SDS011;1433;49.976;8.342;2022-12-10T14:31:27;12.70;;;10.83;;
2850;SDS011;1433;49.976;8.342;2022-12-10T14:34:05;13.00;;;10.90;;
2850;SDS011;1433;49.976;8.342;2022-12-10T14:36:38;14.87;;;12.47;;
2850;SDS011;1433;49.976;8.342;2022-12-10T14:39:13;11.70;;;10.60;;
2850;SDS011;1433;49.976;8.342;2022-12-10T14:41:42;11.20;;;9.87;;
2850;SDS011;1433;49.976;8.342;2022-12-10T14:44:14;11.20;;;10.10;;
2850;SDS011;1433;49.976;8.342;2022-12-10T14:46:49;15.30;;;10.33;;
2850;SDS011;1433;49.976;8.342;2022-12-10T14:49:25;12.73;;;9.40;;
2850;SDS011;1433;49.976;8.342;2022-12-10T14:51:52;13.33;;;10.30;;
2850;SDS011;1433;49.976;8.342;2022-12-10T14:54:26;11.57;;;10.03;;
2850;SDS011;1433;49.976;8.342;2022-12-10T14:56:57;9.73;;;8.73;;
2850;SDS011;1433;49.976;8.342;2022-12-10T14:59:37;12.10;;;10.30;;
2850;SDS011;1433;49.976;8.342;2022-12-10T15:02:18;11.20;;;10.07;;
2850;SDS011;1433;49.976;8.342;2022-12-10T15:04:50;12.30;;;10.93;;
2850;SDS011;1433;49.976;8.342;2022-12-10T15:07:18;11.47;;;9.80;;
2850;SDS011;1433;49.976;8.342;2022-12-10T15:09:56;10.13;;;9.13;;
2850;SDS011;1433;49.976;8.342;2022-12-10T15:12:27;9.80;;;8.50;;
2850;SDS011;1433;49.976;8.342;2022-12-10T15:15:07;11.00;;;8.77;;
2850;SDS011;1433;49.976;8.342;2022-12-10T15:17:39;10.07;;;8.73;;
2850;SDS011;1433;49.976;8.342;2022-12-10T15:20:10;12.40;;;9.83;;
2850;SDS011;1433;49.976;8.342;2022-12-10T15:22:49;13.97;;;10.37;;
2850;SDS011;1433;49.976;8.342;2022-12-10T15:25:24;14.13;;;11.43;;
2850;SDS011;1433;49.976;8.342;2022-12-10T15:27:55;11.80;;;10.30;;
2850;SDS011;1433;49.976;8.342;2022-12-10T15:30:35;16.20;;;11.20;;
2850;SDS011;1433;49.976;8.342;2022-12-10T15:33:21;12.90;;;10.33;;
2850;SDS011;1433;49.976;8.342;2022-12-10T15:35:48;14.67;;;11.27;;
2850;SDS011;1433;49.976;8.342;2022-12-10T15:38:17;11.40;;;10.20;;
2850;SDS011;1433;49.976;8.342;2022-12-10T15:40:44;11.60;;;10.40;;
2850;SDS011;1433;49.976;8.342;2022-12-10T15:43:12;10.70;;;9.60;;
2850;SDS011;1433;49.976;8.342;2022-12-10T15:45:56;12.40;;;11.17;;
2850;SDS011;1433;49.976;8.342;2022-12-10T15:48:24;13.53;;;11.30;;
2850;SDS011;1433;49.976;8.342;2022-12-10T15:50:55;12.87;;;11.13;;
2850;SDS011;1433;49.976;8.342;2022-12-10T15:53:24;13.70;;;11.20;;
2850;SDS011;1433;49.976;8.342;2022-12-10T15:55:54;18.00;;;14.33;;
2850;SDS011;1433;49.976;8.342;2022-12-10T15:58:21;15.20;;;13.30;;
2850;SDS011;1433;49.976;8.342;2022-12-10T16:00:49;13.27;;;11.87;;
2850;SDS011;1433;49.976;8.342;2022-12-10T16:03:16;15.53;;;13.10;;
2850;SDS011;1433;49.976;8.342;2022-12-10T16:05:46;16.60;;;12.27;;
2850;SDS011;1433;49.976;8.342;2022-12-10T16:08:24;14.97;;;13.27;;
2850;SDS011;1433;49.976;8.342;2022-12-10T16:10:55;17.50;;;13.57;;
2850;SDS011;1433;49.976;8.342;2022-12-10T16:13:27;16.03;;;11.97;;
2850;SDS011;1433;49.976;8.342;2022-12-10T16:15:57;15.77;;;14.07;;
2850;SDS011;1433;49.976;8.342;2022-12-10T16:18:28;14.17;;;12.67;;
2850;SDS011;1433;49.976;8.342;2022-12-10T16:20:55;15.80;;;11.90;;
2850;SDS011;1433;49.976;8.342;2022-12-10T16:23:21;13.77;;;11.53;;
2850;SDS011;1433;49.976;8.342;2022-12-10T16:25:47;15.67;;;14.03;;
2850;SDS011;1433;49.976;8.342;2022-12-10T16:28:15;15.63;;;12.37;;
2850;SDS011;1433;49.976;8.342;2022-12-10T16:33:19;16.07;;;13.17;;
2850;SDS011;1433;49.976;8.342;2022-12-10T16:35:48;14.70;;;12.70;;
2850;SDS011;1433;49.976;8.342;2022-12-10T16:38:16;17.90;;;14.10;;
2850;SDS011;1433;49.976;8.342;2022-12-10T16:40:44;18.40;;;13.93;;
2850;SDS011;1433;49.976;8.342;2022-12-10T16:43:25;18.57;;;14.43;;
2850;SDS011;1433;49.976;8.342;2022-12-10T16:45:58;18.43;;;14.43;;
2850;SDS011;1433;49.976;8.342;2022-12-10T16:48:24;17.10;;;13.23;;
2850;SDS011;1433;49.976;8.342;2022-12-10T16:50:51;17.57;;;14.37;;
2850;SDS011;1433;49.976;8.342;2022-12-10T16:53:23;15.60;;;14.00;;